Fecha, hora, temperatura, viento dirección y velocidad, humedad y presión.

  • 22-05-2019 17:00:00 | 18.60°C | Este |9.00 km/h | 72.00% | 1002.10 hPa
  • 22-05-2019 16:00:00 | 18.90°C | Este |11.00 km/h | 68.00% | 1002.10 hPa
  • 22-05-2019 15:00:00 | 17.90°C | Este |14.00 km/h | 71.00% | 1002.40 hPa
  • 22-05-2019 14:00:00 | 17.90°C | Nordeste |12.00 km/h | 73.00% | 1002.40 hPa
  • 22-05-2019 13:00:00 | 17.90°C | Este |12.00 km/h | 74.00% | 1002.70 hPa
  • 22-05-2019 12:00:00 | 17.40°C | Este |8.00 km/h | 74.00% | 1002.80 hPa
  • 22-05-2019 11:00:00 | 16.30°C | Sudeste |8.00 km/h | 77.00% | 1002.90 hPa
  • 22-05-2019 10:00:00 | 13.90°C | Este |12.00 km/h | 88.00% | 1003.00 hPa
  • 22-05-2019 09:00:00 | 12.40°C | Sudeste |12.00 km/h | 94.00% | 1003.00 hPa
  • 22-05-2019 08:00:00 | 11.50°C | Sudeste |12.00 km/h | 97.00% | 1003.10 hPa
  • 22-05-2019 07:00:00 | 11.00°C | Sudeste |11.00 km/h | 98.00% | 1003.10 hPa
  • 22-05-2019 06:00:00 | 10.60°C | Sudeste |12.00 km/h | 98.00% | 1003.30 hPa
  • 22-05-2019 05:00:00 | 8.90°C | Sudeste |11.00 km/h | 98.00% | 1003.60 hPa
  • 22-05-2019 04:00:00 | 9.40°C | Sudeste |9.00 km/h | 98.00% | 1004.00 hPa
  • 22-05-2019 03:00:00 | 9.30°C | Sudeste |8.00 km/h | 97.00% | 1004.20 hPa
  • 22-05-2019 02:00:00 | 9.70°C | Sudeste |11.00 km/h | 96.00% | 1004.20 hPa
  • 22-05-2019 01:00:00 | 10.50°C | Sudeste |15.00 km/h | 96.00% | 1004.30 hPa
  • 22-05-2019 00:00:00 | 11.20°C | Sudeste |16.00 km/h | 94.00% | 1004.60 hPa
  • 21-05-2019 23:00:00 | 12.30°C | Este |16.00 km/h | 92.00% | 1004.50 hPa
  • 21-05-2019 22:00:00 | 12.90°C | Este |20.00 km/h | 89.00% | 1004.20 hPa
  • 21-05-2019 21:00:00 | 14.10°C | Este |18.00 km/h | 82.00% | 1003.90 hPa
  • 21-05-2019 20:00:00 | 15.20°C | Este |15.00 km/h | 78.00% | 1003.50 hPa
  • 21-05-2019 19:00:00 | 15.90°C | Este |23.00 km/h | 76.00% | 1003.30 hPa
  • 21-05-2019 18:00:00 | 16.50°C | Este |19.00 km/h | 73.00% | 1003.30 hPa
    • diseño web asturias Información sobre el estado de las mareas, altura de la marejada, temperatura del agua y otros datos de Gijón en Asturias.

      Surf Gijón